HKNW/WIL METAR and TAF weather

Enter ICAO airport designator
Station Type Date Time Source
HKNW METAR 2022/01/25 05:00 UTC NOAA

HKNW 250500Z 00000KT 9999 FEW020 SCT220 18/14 Q1020


Station Type Date Time Source
HKNW Decoded METAR 2022/01/25 05:00 UTC NOAA

Nairobi / Wilson, Kenya (HKNW) 01-19S 036-49E 1679M
Jan 25, 2022 - 12:00 AM EST / 2022.01.25 0500 UTC
Wind: Calm:0
Visibility: greater than 7 mile(s):0
Sky conditions: partly cloudy
Temperature: 64 F (18 C)
Dew Point: 57 F (14 C)
Relative Humidity: 77%
Pressure (altimeter): 30.12 in. Hg (1020 hPa)
ob: HKNW 250500Z 00000KT 9999 FEW020 SCT220 18/14 Q1020
cycle: 5

Station Type Date Time Source
HKNW TAF 2022/01/22 18:09 UTC NOAA

TAF TAF HKNW 2118/2218 07010KT 9999 BKN025
TEMPO 21122116 -SHRA FEW021CB BKN022 BKN080
BECMG2208/2211 07010KT BKN025

Example: see airport list